Flight Track Log - Related Links

Times and Time Zones

All times are in EDT time to prevent confusion due to time zone crossing. See the CTL18 flight status page for this flight to view local times or setup timezone preferences in your user account.

Time Position Orientation Groundspeed Altitude Reporting Facility
EDT Latitude Longitude Course Direction KTS MPH feet Rate Location/Type
Tue 08:40:30 PM 42.2589 -83.5656 295° West 104 120 2,300  Level Cleveland Center
Tue 08:41:37 PM 42.2769 -83.5972 308° West 101 116 3,600 938 Climbing Cleveland Center
Tue 08:42:38 PM 42.2717 -83.5550 100° East 156 180 4,300 656 Climbing Cleveland Center
Tue 08:43:45 PM 42.2442 -83.4919 120° Southeast 170 196 5,000 330 Climbing Cleveland Center
Tue 08:44:27 PM 42.2242 -83.4517 124° Southeast 189 217 4,900  Descending Cleveland Center
Tue 08:45:00 PM 42.1284 -83.2393 101° East  Level Estimated
Tue 08:45:40 PM 42.1886 -83.3772 123° Southeast 194 223 5,000  Level Cleveland Center
Tue 08:46:41 PM 42.1631 -83.3172 120° Southeast 193 222 5,000  Level Cleveland Center
Tue 08:47:42 PM 42.1353 -83.2544 121° Southeast 192 221 5,000  Level Cleveland Center
Tue 08:48:31 PM 42.1136 -83.2003 118° Southeast 193 222 5,000  Level Cleveland Center
Tue 08:49:38 PM 42.0878 -83.1350 118° Southeast 193 222 5,000  Level Cleveland Center
Tue 08:50:45 PM 42.0583 -83.0583 117° Southeast 194 223 5,000  Level Cleveland Center
Tue 08:51:46 PM 42.0325 -82.9958 119° Southeast 194 223 5,000  Level Cleveland Center
Tue 08:52:22 PM 42.0186 -82.9617 119° Southeast 194 223 5,000  Level Cleveland Center
Tue 08:52:52 PM 42.0067 -82.9306 117° Southeast 193 222 5,000  Level Cleveland Center
Tue 08:53:47 PM 41.9869 -82.8794 117° Southeast 190 219 5,000 52 Level Cleveland Center
Tue 08:54:48 PM 41.9592 -82.8086 118° Southeast 192 221 5,100 43 Climbing Cleveland Center
Tue 08:56:07 PM 41.9253 -82.7267 119° Southeast 190 219 5,100  Level Cleveland Center
Tue 08:57:07 PM 41.9014 -82.6644 117° Southeast 189 217 5,100 50 Level Cleveland Center
Tue 08:58:08 PM 41.8714 -82.5964 121° Southeast 192 221 5,200 47 Climbing Cleveland Center
Tue 08:59:15 PM 41.8456 -82.5258 116° Southeast 196 226 5,200 -55 Level Cleveland Center
Tue 08:59:57 PM 41.8294 -82.4808 116° Southeast 196 226 5,100 -58 Descending Cleveland Center
Tue 09:00:58 PM 41.8036 -82.4189 119° Southeast 196 226 5,100  Level Cleveland Center
Tue 09:02:17 PM 41.7714 -82.3344 117° Southeast 196 226 5,100 -43 Level Cleveland Center
Tue 09:03:17 PM 41.7411 -82.2694 122° Southeast 196 226 5,000  Descending Cleveland Center
Tue 09:04:24 PM 41.7089 -82.1964 121° Southeast 195 224 5,100 -198 Climbing Cleveland Center
Tue 09:05:18 PM 41.6867 -82.1375 117° Southeast 198 228 4,600 -550 Descending Cleveland Center
Tue 09:06:13 PM 41.6667 -82.0786 114° Southeast 218 251 4,100 -621 Descending Cleveland Center
Tue 09:07:14 PM 41.6342 -82.0028 120° Southeast 210 242 3,400 -522 Descending Cleveland Center
Tue 09:08:08 PM 41.6100 -81.9439 119° Southeast 207 238 3,100 -313 Descending Cleveland Center
Tue 09:09:09 PM 41.5878 -81.8797 115° Southeast 190 219 2,800 -469 Descending Cleveland Center
Tue 09:10:16 PM 41.5553 -81.8069 121° Southeast 196 226 2,100 -567 Descending Cleveland Center
Tue 09:11:16 PM 41.5244 -81.7536 128° Southeast 173 199 1,600 -500 Descending Cleveland Center

Login

Don't have an account? Register now (free) for customized features, flight alerts, and more!